Time;durP1;ratioP1;P1;durP2;ratioP2;P2;SDS_P1;SDS_P2;PMS_P1;PMS_P2;Temp;Humidity;BMP_temperature;BMP_pressure;BME280_temperature;BME280_humidity;BME280_pressure;Samples;Min_cycle;Max_cycle;Signal;HPM_P1;HPM_P2
2023/05/23 00:00:21;;;;;;;4.60;4.03;;;18.00;57.10;;;;;;5115024;28;20249;-73
2023/05/23 00:02:48;;;;;;;4.72;3.92;;;18.00;57.20;;;;;;5114968;28;20181;-73
2023/05/23 00:05:16;;;;;;;6.35;3.78;;;18.00;57.20;;;;;;5114930;28;20699;-72
2023/05/23 00:07:44;;;;;;;5.10;3.92;;;18.00;57.80;;;;;;5115087;28;20189;-72
2023/05/23 00:10:14;;;;;;;5.70;4.03;;;18.00;57.20;;;;;;5114883;28;20212;-73
2023/05/23 00:12:41;;;;;;;4.85;3.78;;;18.00;57.20;;;;;;5114841;28;20186;-72
2023/05/23 00:15:09;;;;;;;4.93;4.28;;;18.00;57.20;;;;;;5114466;28;20730;-73
2023/05/23 00:17:37;;;;;;;4.93;3.80;;;18.00;57.20;;;;;;5114647;28;20212;-72
2023/05/23 00:20:04;;;;;;;6.88;4.18;;;18.00;57.30;;;;;;5114839;28;20216;-72
2023/05/23 00:22:31;;;;;;;6.53;4.20;;;18.00;57.30;;;;;;5114357;28;20722;-73
2023/05/23 00:25:00;;;;;;;5.93;4.20;;;18.00;57.30;;;;;;5114202;28;20272;-72
2023/05/23 00:27:29;;;;;;;5.65;3.80;;;18.00;57.30;;;;;;5114488;28;20185;-72
2023/05/23 00:29:56;;;;;;;5.93;3.90;;;17.90;57.20;;;;;;5114488;28;20193;-72
2023/05/23 00:32:23;;;;;;;5.75;4.18;;;18.00;57.30;;;;;;5114084;28;20192;-72
2023/05/23 00:34:52;;;;;;;5.30;3.90;;;18.00;57.30;;;;;;5114359;28;20276;-72
2023/05/23 00:37:21;;;;;;;5.07;3.80;;;18.00;57.30;;;;;;5113913;28;20579;-72
2023/05/23 00:39:48;;;;;;;5.03;3.70;;;17.90;57.20;;;;;;5114226;28;20191;-72
2023/05/23 00:42:15;;;;;;;5.43;3.90;;;18.00;57.30;;;;;;5114483;28;20196;-72
2023/05/23 00:44:43;;;;;;;6.10;3.75;;;18.00;57.30;;;;;;5114239;28;20273;-72
2023/05/23 00:47:12;;;;;;;6.60;3.70;;;18.00;57.30;;;;;;5113815;28;20863;-72
2023/05/23 00:49:40;;;;;;;5.55;4.25;;;17.90;57.20;;;;;;5113601;28;20229;-72
2023/05/23 00:52:07;;;;;;;5.43;4.15;;;17.90;57.20;;;;;;5113822;28;20647;-72
2023/05/23 00:54:36;;;;;;;6.05;4.00;;;17.90;57.20;;;;;;5114205;28;20207;-72
2023/05/23 00:57:03;;;;;;;4.88;3.75;;;17.90;57.20;;;;;;5113696;28;20801;-72
2023/05/23 00:59:32;;;;;;;5.18;3.70;;;18.00;57.30;;;;;;5113931;28;20185;-72
2023/05/23 01:02:01;;;;;;;7.93;3.88;;;18.00;57.30;;;;;;5114073;28;20299;-72
2023/05/23 01:04:28;;;;;;;6.15;3.80;;;17.90;57.20;;;;;;5113491;28;20704;-72
2023/05/23 01:06:56;;;;;;;7.72;4.03;;;17.90;57.20;;;;;;5113811;28;20217;-72
2023/05/23 01:09:25;;;;;;;5.85;3.80;;;17.90;57.20;;;;;;5113411;28;20674;-72
2023/05/23 01:12:08;;;;;;;4.50;3.63;;;17.90;57.10;;;;;;5113833;28;20304;-72
2023/05/23 01:14:42;;;;;;;8.93;3.35;;;17.90;57.10;;;;;;5113637;28;20620;-73
2023/05/23 01:17:17;;;;;;;4.60;3.63;;;17.90;57.10;;;;;;5113625;28;20223;-72
2023/05/23 01:19:59;;;;;;;4.72;3.67;;;17.90;57.10;;;;;;5113592;28;20200;-72
2023/05/23 01:22:41;;;;;;;6.03;3.72;;;17.90;57.10;;;;;;5113050;28;20192;-72
2023/05/23 01:25:21;;;;;;;4.57;3.58;;;17.90;57.10;;;;;;5113313;28;20603;-72
2023/05/23 01:27:55;;;;;;;5.82;3.90;;;17.90;57.10;;;;;;5113338;28;20185;-73
2023/05/23 01:30:25;;;;;;;5.70;3.88;;;17.90;57.10;;;;;;5113123;28;20706;-72
2023/05/23 01:32:54;;;;;;;6.88;3.90;;;17.90;57.10;;;;;;5113050;28;20192;-73
2023/05/23 01:35:25;;;;;;;4.65;3.65;;;17.90;57.00;;;;;;5113102;28;20217;-72
2023/05/23 01:37:53;;;;;;;5.80;3.53;;;17.90;57.00;;;;;;5113038;28;20213;-72
2023/05/23 01:40:20;;;;;;;9.60;3.92;;;17.90;57.00;;;;;;5113232;28;20303;-72
2023/05/23 01:42:47;;;;;;;6.82;3.50;;;17.90;57.00;;;;;;5113131;28;20186;-72
2023/05/23 01:45:17;;;;;;;4.72;3.30;;;17.90;57.00;;;;;;5112801;28;20849;-72
2023/05/23 01:47:46;;;;;;;5.43;3.92;;;17.90;57.00;;;;;;5112895;28;20185;-73
2023/05/23 01:50:14;;;;;;;6.50;4.00;;;17.90;57.00;;;;;;5112258;28;20235;-73
2023/05/23 01:52:42;;;;;;;7.60;3.10;;;17.90;57.00;;;;;;5112986;28;20189;-72
2023/05/23 01:55:10;;;;;;;3.92;3.28;;;17.90;57.00;;;;;;5109643;28;20185;-72
2023/05/23 01:57:38;;;;;;;6.72;3.63;;;17.90;56.90;;;;;;5112667;28;20581;-72
2023/05/23 02:00:07;;;;;;;6.90;3.70;;;17.80;56.80;;;;;;5112812;28;20555;-72
2023/05/23 02:02:35;;;;;;;4.80;3.50;;;17.90;57.00;;;;;;5108296;28;20228;-72
2023/05/23 02:05:03;;;;;;;5.10;3.55;;;17.90;56.90;;;;;;5112522;28;20700;-72
2023/05/23 02:07:30;;;;;;;6.68;3.83;;;17.90;57.50;;;;;;5112443;28;20181;-72
2023/05/23 02:09:57;;;;;;;6.07;3.70;;;17.90;56.90;;;;;;5112599;28;20281;-73
2023/05/23 02:12:24;;;;;;;8.45;3.60;;;17.90;56.80;;;;;;5112461;28;20742;-72
2023/05/23 02:14:52;;;;;;;4.85;3.72;;;17.90;56.80;;;;;;5112419;28;20224;-72
2023/05/23 02:17:20;;;;;;;5.05;3.40;;;17.90;56.80;;;;;;5112451;28;20686;-72
2023/05/23 02:19:49;;;;;;;5.20;3.83;;;17.90;56.70;;;;;;5112449;28;20200;-72
2023/05/23 02:22:16;;;;;;;6.53;3.65;;;17.90;56.70;;;;;;5112337;28;20213;-72
2023/05/23 02:24:43;;;;;;;7.47;3.58;;;17.80;56.60;;;;;;5112809;28;20191;-72
2023/05/23 02:27:10;;;;;;;5.72;3.80;;;17.90;56.70;;;;;;5112491;28;20217;-72
2023/05/23 02:29:37;;;;;;;6.55;3.63;;;17.80;56.50;;;;;;5112588;28;20221;-72
2023/05/23 02:32:05;;;;;;;5.55;3.65;;;17.80;56.50;;;;;;5112652;28;20220;-72
2023/05/23 02:34:32;;;;;;;4.90;3.53;;;17.80;56.50;;;;;;5094345;28;20195;-72
2023/05/23 02:37:00;;;;;;;5.05;3.95;;;17.80;56.40;;;;;;5112485;28;20217;-72
2023/05/23 02:39:27;;;;;;;7.43;3.95;;;17.80;56.40;;;;;;5112419;28;20185;-72
2023/05/23 02:41:55;;;;;;;5.80;3.95;;;17.80;56.40;;;;;;5112668;28;20221;-72
2023/05/23 02:44:21;;;;;;;4.13;3.28;;;17.80;56.40;;;;;;5112476;28;20221;-72
2023/05/23 02:46:49;;;;;;;9.77;4.03;;;17.80;56.40;;;;;;5112201;28;20304;-72
2023/05/23 02:49:16;;;;;;;5.47;3.92;;;17.80;56.30;;;;;;5112216;28;20281;-71
2023/05/23 02:51:42;;;;;;;6.72;3.50;;;17.80;56.30;;;;;;5112363;28;20217;-72
2023/05/23 02:54:11;;;;;;;7.35;3.60;;;17.80;56.20;;;;;;5112675;28;20232;-71
2023/05/23 02:56:38;;;;;;;4.93;3.70;;;17.80;56.30;;;;;;5112064;28;20219;-72
2023/05/23 02:59:06;;;;;;;8.07;4.15;;;17.80;56.20;;;;;;5112167;28;20320;-72
2023/05/23 03:01:33;;;;;;;6.03;3.80;;;17.80;56.20;;;;;;5114366;28;20251;-72
2023/05/23 03:04:00;;;;;;;7.43;3.85;;;17.80;56.20;;;;;;5082031;28;20191;-72
2023/05/23 03:06:27;;;;;;;6.50;4.10;;;17.80;56.10;;;;;;5114635;28;20700;-72
2023/05/23 03:08:55;;;;;;;6.20;4.00;;;17.70;56.00;;;;;;5115956;28;20272;-72
2023/05/23 03:11:24;;;;;;;6.35;3.63;;;17.80;56.10;;;;;;5116105;28;20308;-72
2023/05/23 03:13:51;;;;;;;6.88;4.00;;;17.80;56.00;;;;;;5115909;28;20276;-72
2023/05/23 03:16:18;;;;;;;7.35;3.92;;;17.80;56.00;;;;;;5115942;28;20304;-72
2023/05/23 03:18:45;;;;;;;5.57;4.10;;;17.80;56.00;;;;;;5115598;28;20225;-73
2023/05/23 03:21:12;;;;;;;6.22;4.07;;;17.80;55.90;;;;;;5115774;28;20217;-72
2023/05/23 03:23:39;;;;;;;6.05;3.88;;;17.80;55.90;;;;;;5115850;28;20186;-72
2023/05/23 03:26:06;;;;;;;6.95;4.07;;;17.70;55.80;;;;;;5115771;28;20213;-73
2023/05/23 03:28:35;;;;;;;5.85;4.15;;;17.80;55.90;;;;;;5115317;28;20185;-73
2023/05/23 03:31:02;;;;;;;5.35;3.53;;;17.70;55.80;;;;;;5115765;28;20244;-73
2023/05/23 03:33:29;;;;;;;6.45;4.25;;;17.70;55.80;;;;;;5115194;28;20182;-72
2023/05/23 03:35:56;;;;;;;7.60;4.13;;;17.70;55.70;;;;;;5115590;28;20213;-73
2023/05/23 03:38:23;;;;;;;6.28;3.72;;;17.70;55.70;;;;;;5115446;28;20224;-73
2023/05/23 03:40:50;;;;;;;7.68;4.60;;;17.70;55.60;;;;;;5115245;28;20315;-72
2023/05/23 03:43:17;;;;;;;6.40;4.03;;;17.80;55.60;;;;;;5115163;28;20190;-73
2023/05/23 03:45:46;;;;;;;7.45;4.15;;;17.70;55.60;;;;;;5115310;28;20585;-72
2023/05/23 03:48:13;;;;;;;6.30;4.10;;;17.70;55.50;;;;;;5115328;28;20266;-72
2023/05/23 03:50:40;;;;;;;7.72;4.30;;;17.70;55.50;;;;;;5114990;28;20235;-72
2023/05/23 03:53:07;;;;;;;7.82;4.25;;;17.70;55.50;;;;;;5115026;28;20738;-73
2023/05/23 03:55:34;;;;;;;7.20;4.57;;;17.70;55.40;;;;;;5115286;28;20217;-73
2023/05/23 03:58:01;;;;;;;7.40;4.68;;;17.70;55.40;;;;;;5114657;28;20714;-72
2023/05/23 04:00:28;;;;;;;8.88;4.50;;;17.70;55.40;;;;;;5114696;28;20278;-72
2023/05/23 04:02:56;;;;;;;6.03;4.47;;;17.70;55.30;;;;;;5114733;28;20276;-72
2023/05/23 04:05:23;;;;;;;7.22;4.65;;;17.70;55.30;;;;;;5114859;28;20201;-72
2023/05/23 04:07:51;;;;;;;7.45;4.80;;;17.70;55.30;;;;;;5114613;28;20284;-72
2023/05/23 04:10:18;;;;;;;7.28;4.60;;;17.70;55.20;;;;;;5114500;28;20662;-73
2023/05/23 04:12:46;;;;;;;8.45;4.88;;;17.70;55.20;;;;;;5114376;28;20268;-72
2023/05/23 04:15:13;;;;;;;6.13;3.97;;;17.70;55.20;;;;;;5114359;28;20193;-72
2023/05/23 04:17:40;;;;;;;8.32;4.20;;;17.70;55.10;;;;;;5114624;28;20236;-73
2023/05/23 04:20:11;;;;;;;6.38;4.20;;;17.70;55.10;;;;;;5114860;28;20195;-73
2023/05/23 04:22:38;;;;;;;8.85;4.70;;;17.70;55.10;;;;;;5114365;28;20214;-72
2023/05/23 04:25:06;;;;;;;6.75;4.60;;;17.70;55.00;;;;;;5114758;28;20197;-72
2023/05/23 04:27:33;;;;;;;7.18;4.65;;;17.70;55.00;;;;;;5114633;28;20209;-72
2023/05/23 04:30:00;;;;;;;10.45;5.05;;;17.70;55.00;;;;;;5114575;28;20275;-72
2023/05/23 04:32:27;;;;;;;8.80;5.18;;;17.70;55.00;;;;;;5096615;28;20295;-73
2023/05/23 04:34:55;;;;;;;6.63;4.65;;;17.70;54.90;;;;;;5114491;28;20192;-73
2023/05/23 04:37:25;;;;;;;8.18;5.25;;;17.70;54.90;;;;;;5113971;28;20770;-72
2023/05/23 04:39:52;;;;;;;6.85;4.70;;;17.70;54.80;;;;;;5114352;28;20216;-72
2023/05/23 04:42:23;;;;;;;8.00;5.40;;;17.70;54.80;;;;;;5114545;28;20209;-73
2023/05/23 04:44:50;;;;;;;7.25;5.13;;;17.70;54.80;;;;;;5113873;28;20666;-72
2023/05/23 04:47:17;;;;;;;7.13;5.05;;;17.60;54.60;;;;;;5114175;28;20595;-72
2023/05/23 04:49:45;;;;;;;7.30;5.05;;;17.60;54.60;;;;;;5113859;28;20257;-73
2023/05/23 04:52:12;;;;;;;6.53;4.55;;;17.60;54.60;;;;;;5114117;28;20220;-73
2023/05/23 04:54:43;;;;;;;8.55;5.18;;;17.70;54.60;;;;;;5114018;28;20302;-72
2023/05/23 04:57:11;;;;;;;7.65;5.22;;;17.70;54.60;;;;;;5114072;28;20271;-72
2023/05/23 04:59:38;;;;;;;7.20;4.97;;;17.70;54.50;;;;;;5113520;28;20776;-72
2023/05/23 05:02:06;;;;;;;7.05;4.75;;;17.70;54.50;;;;;;5113870;28;20252;-72
2023/05/23 05:04:33;;;;;;;8.20;5.47;;;17.60;54.40;;;;;;5113526;28;20647;-72
2023/05/23 05:07:02;;;;;;;6.13;4.78;;;17.60;54.40;;;;;;5113818;28;20217;-72
2023/05/23 05:09:30;;;;;;;8.07;5.50;;;17.60;54.40;;;;;;5095462;28;20201;-72
2023/05/23 05:11:59;;;;;;;6.63;5.07;;;17.60;54.30;;;;;;5113558;28;20232;-72
2023/05/23 05:14:26;;;;;;;7.53;5.00;;;17.60;54.30;;;;;;5104029;28;20281;-72
2023/05/23 05:16:56;;;;;;;11.48;5.07;;;17.60;54.30;;;;;;5081622;28;20227;-72
2023/05/23 05:19:23;;;;;;;7.00;5.25;;;17.60;54.20;;;;;;5084177;28;20703;-72
2023/05/23 05:21:51;;;;;;;7.78;5.30;;;17.60;54.20;;;;;;5093155;28;20213;-72
2023/05/23 05:24:19;;;;;;;10.32;5.30;;;17.70;54.20;;;;;;5075139;28;20198;-72
2023/05/23 05:26:47;;;;;;;7.78;4.78;;;17.60;54.20;;;;;;5072744;28;20726;-72
2023/05/23 05:29:16;;;;;;;8.38;5.30;;;17.60;54.10;;;;;;5072391;28;20283;-72
2023/05/23 05:31:44;;;;;;;7.28;4.93;;;17.60;54.10;;;;;;5072745;28;20586;-72
2023/05/23 05:34:11;;;;;;;8.13;5.43;;;17.60;54.10;;;;;;5055033;28;20187;-72
2023/05/23 05:36:44;;;;;;;7.82;5.15;;;17.60;54.00;;;;;;5072575;28;20248;-72
2023/05/23 05:39:12;;;;;;;8.30;5.40;;;17.60;54.00;;;;;;5072645;28;20219;-72
2023/05/23 05:41:39;;;;;;;7.88;5.20;;;17.60;53.90;;;;;;5072604;28;20257;-72
2023/05/23 05:44:06;;;;;;;9.48;5.22;;;17.60;53.90;;;;;;5072476;28;20197;-72
2023/05/23 05:46:35;;;;;;;8.35;5.15;;;17.60;53.90;;;;;;5072342;28;20775;-72
2023/05/23 05:49:02;;;;;;;8.98;5.68;;;17.70;53.90;;;;;;5072072;28;20676;-72
2023/05/23 05:51:30;;;;;;;9.68;5.60;;;17.70;53.80;;;;;;5072154;28;20225;-73
2023/05/23 05:53:57;;;;;;;8.02;5.45;;;17.70;53.70;;;;;;5054822;28;20226;-73
2023/05/23 05:56:25;;;;;;;6.65;5.05;;;17.70;53.70;;;;;;5072416;28;20233;-72
2023/05/23 05:58:52;;;;;;;8.20;5.57;;;17.60;53.70;;;;;;5072098;28;20732;-73
2023/05/23 06:01:19;;;;;;;8.77;5.60;;;17.70;53.70;;;;;;5074951;28;20656;-69
2023/05/23 06:03:48;;;;;;;7.63;5.60;;;17.70;53.70;;;;;;5085401;28;20286;-71
2023/05/23 06:06:14;;;;;;;8.45;5.38;;;17.80;53.80;;;;;;5068902;28;20300;-71
2023/05/23 06:08:42;;;;;;;7.93;5.22;;;17.90;53.90;;;;;;5069009;28;20191;-70
2023/05/23 06:11:10;;;;;;;9.85;5.47;;;17.90;53.70;;;;;;5071300;28;20219;-70
2023/05/23 06:13:37;;;;;;;10.73;6.03;;;18.00;53.50;;;;;;5077675;28;20963;-72
2023/05/23 06:16:06;;;;;;;8.30;4.78;;;18.10;53.40;;;;;;5089035;28;20249;-70
2023/05/23 06:18:33;;;;;;;8.80;5.85;;;18.20;54.00;;;;;;5082381;28;20576;-71
2023/05/23 06:21:01;;;;;;;8.45;5.53;;;18.30;53.90;;;;;;5084253;28;20224;-70
2023/05/23 06:23:28;;;;;;;10.13;6.32;;;18.30;53.10;;;;;;5071013;28;20192;-69
2023/05/23 06:25:56;;;;;;;9.73;5.78;;;18.40;53.80;;;;;;5069561;28;20226;-69
2023/05/23 06:28:23;;;;;;;8.00;5.35;;;18.40;53.60;;;;;;5068618;28;20286;-70
2023/05/23 06:30:50;;;;;;;8.90;5.63;;;18.50;52.90;;;;;;5078361;28;20297;-69
2023/05/23 06:33:17;;;;;;;7.50;5.57;;;18.60;52.90;;;;;;5088302;28;20663;-70
2023/05/23 06:35:44;;;;;;;8.88;5.63;;;18.60;52.60;;;;;;5075022;28;20301;-69
2023/05/23 06:38:12;;;;;;;8.77;5.70;;;18.70;52.60;;;;;;5072405;28;20622;-71
2023/05/23 06:40:40;;;;;;;14.07;6.05;;;18.80;52.60;;;;;;5072570;28;20249;-71
2023/05/23 06:43:07;;;;;;;8.77;6.13;;;18.80;52.50;;;;;;5071036;28;20191;-71
2023/05/23 06:45:34;;;;;;;10.65;5.32;;;18.90;52.40;;;;;;5093017;28;20203;-71
2023/05/23 06:48:02;;;;;;;13.25;5.85;;;19.00;52.30;;;;;;5093210;28;20201;-70
2023/05/23 06:50:29;;;;;;;10.90;6.05;;;19.00;52.10;;;;;;5091961;28;20230;-69
2023/05/23 06:52:56;;;;;;;15.35;9.60;;;19.10;51.90;;;;;;5092679;28;20281;-70
2023/05/23 06:55:25;;;;;;;16.05;8.95;;;19.10;51.80;;;;;;5092496;28;20186;-71
2023/05/23 06:57:52;;;;;;;13.95;8.43;;;19.20;52.00;;;;;;5072689;28;20226;-70
2023/05/23 07:00:20;;;;;;;13.27;7.93;;;19.20;51.80;;;;;;5072032;28;20261;-69
2023/05/23 07:02:48;;;;;;;14.27;6.95;;;19.20;51.80;;;;;;5072538;28;20306;-74
2023/05/23 07:05:16;;;;;;;14.55;6.68;;;19.30;51.70;;;;;;5072165;28;20191;-74
2023/05/23 07:07:43;;;;;;;12.25;7.38;;;19.30;51.70;;;;;;5070514;28;20229;-75
2023/05/23 07:10:10;;;;;;;10.07;6.72;;;19.40;51.70;;;;;;5081246;28;20723;-74
2023/05/23 07:12:39;;;;;;;8.63;6.38;;;19.40;51.60;;;;;;5091673;28;20222;-72
2023/05/23 07:15:07;;;;;;;10.15;5.97;;;19.40;51.50;;;;;;5080997;28;20282;-72
2023/05/23 07:17:35;;;;;;;11.65;6.72;;;19.40;51.50;;;;;;5080798;28;20230;-73
2023/05/23 07:20:03;;;;;;;15.10;6.05;;;19.50;51.40;;;;;;5084839;28;20244;-72
2023/05/23 07:22:30;;;;;;;10.52;5.78;;;19.50;51.30;;;;;;5071625;28;20261;-72
2023/05/23 07:24:57;;;;;;;9.98;6.13;;;19.50;51.30;;;;;;5078361;28;20221;-73
2023/05/23 07:27:24;;;;;;;9.88;5.97;;;19.50;51.10;;;;;;5086851;28;20566;-72
2023/05/23 07:29:52;;;;;;;10.50;6.22;;;19.60;51.10;;;;;;5090502;28;20303;-72
2023/05/23 07:32:20;;;;;;;9.27;5.95;;;19.50;51.10;;;;;;5090722;28;20953;-74
2023/05/23 07:34:46;;;;;;;15.65;6.35;;;19.50;50.90;;;;;;5085788;28;20221;-71
2023/05/23 07:37:14;;;;;;;14.23;6.28;;;19.60;51.10;;;;;;5078408;28;20224;-73
2023/05/23 07:39:42;;;;;;;12.18;6.00;;;19.60;51.10;;;;;;5075207;28;20219;-72
2023/05/23 07:42:09;;;;;;;13.55;5.97;;;19.60;51.70;;;;;;5051085;28;20304;-76
2023/05/23 07:44:37;;;;;;;8.75;5.80;;;19.60;51.10;;;;;;5071651;28;20190;-74
2023/05/23 07:47:05;;;;;;;9.43;6.13;;;19.60;50.90;;;;;;5088900;28;20639;-71
2023/05/23 07:49:33;;;;;;;11.85;6.38;;;19.60;50.90;;;;;;5086493;28;20241;-76
2023/05/23 07:51:59;;;;;;;10.63;5.72;;;19.60;50.80;;;;;;5070831;28;20229;-73
2023/05/23 07:54:26;;;;;;;12.25;5.63;;;19.60;50.80;;;;;;5071813;28;20640;-74
2023/05/23 07:56:54;;;;;;;9.68;5.22;;;19.70;50.90;;;;;;5061876;28;20317;-73
2023/05/23 07:59:21;;;;;;;11.32;5.78;;;19.60;50.60;;;;;;5070519;28;20305;-72
2023/05/23 08:01:49;;;;;;;9.10;5.28;;;19.70;50.90;;;;;;5090852;28;20720;-72
2023/05/23 08:04:17;;;;;;;11.43;5.35;;;19.70;50.90;;;;;;5090336;28;20569;-75
2023/05/23 08:06:46;;;;;;;11.00;5.97;;;19.60;50.60;;;;;;5070567;28;20675;-72
2023/05/23 08:09:14;;;;;;;11.20;5.70;;;19.70;50.80;;;;;;5070548;28;20217;-71
2023/05/23 08:11:41;;;;;;;10.63;5.80;;;19.70;51.10;;;;;;5070331;28;20798;-72
2023/05/23 08:14:08;;;;;;;8.30;5.65;;;19.70;51.20;;;;;;5088124;28;20198;-73
2023/05/23 08:16:36;;;;;;;9.13;5.57;;;19.70;51.10;;;;;;5090403;28;21124;-70
2023/05/23 08:19:03;;;;;;;8.25;5.78;;;19.70;51.10;;;;;;5090462;28;20221;-72
2023/05/23 08:21:32;;;;;;;9.20;5.97;;;19.70;51.30;;;;;;5078613;28;20779;-73
2023/05/23 08:23:59;;;;;;;15.27;5.90;;;19.70;51.40;;;;;;5070170;28;20665;-72
2023/05/23 08:26:33;;;;;;;13.23;6.00;;;19.70;50.90;;;;;;5086369;28;20218;-71
2023/05/23 08:29:02;;;;;;;9.75;5.88;;;19.70;51.10;;;;;;5090696;28;20201;-72
2023/05/23 08:31:29;;;;;;;10.68;5.53;;;19.70;51.00;;;;;;5090032;28;20309;-71
2023/05/23 08:33:57;;;;;;;10.10;5.40;;;19.70;51.00;;;;;;5090462;28;20647;-71
2023/05/23 08:36:24;;;;;;;11.95;6.03;;;19.70;50.80;;;;;;5082922;28;20195;-71
2023/05/23 08:38:53;;;;;;;9.30;5.35;;;19.80;50.80;;;;;;5073621;28;20196;-72
2023/05/23 08:41:21;;;;;;;8.25;5.38;;;19.70;50.80;;;;;;5075449;28;20240;-71
2023/05/23 08:43:49;;;;;;;10.50;5.93;;;19.70;51.00;;;;;;5069620;28;20281;-69
2023/05/23 08:46:16;;;;;;;13.20;5.53;;;19.70;51.00;;;;;;5069913;28;20198;-72
2023/05/23 08:48:51;;;;;;;11.52;5.85;;;19.70;51.00;;;;;;5069371;28;20346;-74
2023/05/23 08:51:19;;;;;;;9.10;5.78;;;19.80;51.30;;;;;;5069228;28;20774;-70
2023/05/23 08:53:47;;;;;;;17.98;6.38;;;19.80;51.60;;;;;;5069331;28;20276;-72
2023/05/23 08:56:17;;;;;;;15.02;5.70;;;19.80;51.70;;;;;;5076831;28;20187;-72
2023/05/23 08:58:47;;;;;;;10.32;5.50;;;19.90;52.00;;;;;;5034481;28;20871;-73
2023/05/23 09:01:17;;;;;;;12.55;5.82;;;19.90;52.00;;;;;;5051174;28;20205;-72
2023/05/23 09:03:44;;;;;;;17.67;5.65;;;19.90;52.10;;;;;;5068989;28;20226;-72
2023/05/23 09:06:11;;;;;;;10.50;6.88;;;20.00;52.20;;;;;;5080602;28;20193;-72
2023/05/23 09:08:38;;;;;;;9.98;5.97;;;20.00;52.10;;;;;;5088073;28;20218;-70
2023/05/23 09:11:07;;;;;;;11.48;6.47;;;20.00;51.60;;;;;;5088970;28;20659;-69
2023/05/23 09:13:35;;;;;;;11.30;5.75;;;20.00;52.20;;;;;;5076463;28;20231;-69
2023/05/23 09:16:05;;;;;;;10.25;5.90;;;20.00;51.50;;;;;;5068951;28;20555;-71
2023/05/23 09:18:35;;;;;;;9.45;6.47;;;20.00;51.30;;;;;;5081842;28;20221;-71
2023/05/23 09:21:02;;;;;;;13.70;6.38;;;20.00;51.30;;;;;;5078027;28;20229;-70
2023/05/23 09:23:33;;;;;;;10.25;6.20;;;20.00;51.20;;;;;;5078527;28;20985;-70
2023/05/23 09:26:02;;;;;;;8.73;5.75;;;20.00;51.20;;;;;;5075448;28;20194;-69
2023/05/23 09:28:30;;;;;;;11.73;6.35;;;20.00;51.20;;;;;;5068570;28;20234;-71
2023/05/23 09:31:02;;;;;;;8.90;6.20;;;20.00;51.70;;;;;;5068933;28;20195;-71
2023/05/23 09:33:40;;;;;;;13.02;5.70;;;20.00;50.90;;;;;;5068209;28;20223;-70
2023/05/23 09:36:08;;;;;;;13.25;6.40;;;20.00;51.00;;;;;;5068895;28;20270;-71
2023/05/23 09:38:38;;;;;;;8.65;6.32;;;20.00;50.90;;;;;;5068398;28;20660;-71
2023/05/23 09:41:06;;;;;;;13.00;6.07;;;20.00;50.90;;;;;;5068566;28;20210;-69
2023/05/23 09:43:33;;;;;;;9.02;5.97;;;20.00;50.90;;;;;;5068923;28;20309;-69
2023/05/23 09:46:08;;;;;;;13.02;6.43;;;20.00;50.90;;;;;;5068397;28;20664;-71
2023/05/23 09:48:35;;;;;;;9.75;6.25;;;20.00;50.90;;;;;;5068320;28;20222;-71
2023/05/23 09:51:05;;;;;;;10.13;5.97;;;20.00;50.90;;;;;;5068314;28;20226;-71
2023/05/23 09:53:32;;;;;;;10.77;6.38;;;20.00;50.90;;;;;;5068309;28;20896;-69
2023/05/23 09:56:01;;;;;;;11.48;6.32;;;20.00;50.90;;;;;;5070609;28;20195;-70
2023/05/23 09:58:30;;;;;;;12.23;6.93;;;20.10;51.00;;;;;;5083066;28;20225;-71
2023/05/23 10:01:02;;;;;;;9.52;5.75;;;20.00;50.90;;;;;;5081095;28;20583;-70
2023/05/23 10:03:35;;;;;;;12.63;6.72;;;20.00;50.90;;;;;;5068196;28;20215;-72
2023/05/23 10:06:06;;;;;;;13.45;6.45;;;20.10;51.00;;;;;;5067638;28;20192;-70
2023/05/23 10:08:39;;;;;;;11.20;6.50;;;20.10;51.00;;;;;;5068113;28;20226;-68
2023/05/23 10:11:50;;;;;;;11.23;6.00;;;20.10;51.00;;;;;;5078220;28;20968;-68
2023/05/23 10:14:18;;;;;;;9.30;6.20;;;20.10;51.00;;;;;;5082986;28;20248;-69
2023/05/23 10:16:56;;;;;;;11.13;6.18;;;20.10;51.00;;;;;;5067969;28;20197;-69
2023/05/23 10:19:31;;;;;;;11.23;6.68;;;20.10;51.00;;;;;;5067221;28;20225;-69
2023/05/23 10:22:00;;;;;;;10.35;6.68;;;20.10;50.80;;;;;;5066314;28;20218;-70
2023/05/23 10:24:28;;;;;;;15.25;6.72;;;20.10;50.80;;;;;;5068076;28;20248;-70
2023/05/23 10:26:55;;;;;;;13.38;6.55;;;20.10;50.80;;;;;;5067376;28;20711;-69
2023/05/23 10:29:22;;;;;;;9.45;5.90;;;20.10;50.70;;;;;;5073922;28;20214;-69
2023/05/23 10:31:50;;;;;;;14.13;6.60;;;20.20;51.30;;;;;;5079181;28;20186;-70
2023/05/23 10:34:30;;;;;;;11.55;7.18;;;20.20;50.70;;;;;;5084430;28;20225;-71
2023/05/23 10:37:03;;;;;;;10.73;6.07;;;20.20;50.60;;;;;;5083220;28;20194;-69
2023/05/23 10:39:43;;;;;;;11.00;6.40;;;20.20;50.50;;;;;;5081376;28;20222;-70
2023/05/23 10:42:15;;;;;;;9.70;5.80;;;20.20;50.50;;;;;;5069408;28;20201;-70
2023/05/23 10:44:43;;;;;;;12.38;6.35;;;20.20;50.40;;;;;;5082697;28;20683;-72
2023/05/23 10:47:11;;;;;;;8.23;5.53;;;20.20;50.40;;;;;;5082969;28;20192;-70
2023/05/23 10:49:41;;;;;;;9.65;6.05;;;20.20;50.50;;;;;;5083805;28;20238;-71
2023/05/23 10:52:10;;;;;;;9.48;5.95;;;20.20;50.50;;;;;;5079312;28;20208;-70
2023/05/23 10:54:44;;;;;;;9.40;6.15;;;20.20;50.60;;;;;;5077645;28;20866;-70
2023/05/23 10:57:12;;;;;;;9.88;6.22;;;20.20;50.60;;;;;;5084144;28;20746;-70
2023/05/23 10:59:40;;;;;;;12.32;5.65;;;20.20;50.50;;;;;;5083137;28;20223;-70
2023/05/23 11:02:13;;;;;;;12.02;5.75;;;20.20;50.70;;;;;;5066647;28;20669;-69
2023/05/23 11:04:42;;;;;;;11.07;5.65;;;20.20;50.60;;;;;;5069693;28;20210;-70
2023/05/23 11:07:31;;;;;;;9.23;5.70;;;20.20;50.60;;;;;;5085142;28;20205;-71
2023/05/23 11:10:09;;;;;;;8.80;5.57;;;20.20;50.70;;;;;;5087519;28;20646;-70
2023/05/23 11:12:38;;;;;;;8.38;5.53;;;20.20;50.70;;;;;;5082453;28;20274;-69
2023/05/23 11:15:20;;;;;;;13.52;5.47;;;20.20;50.80;;;;;;5067696;28;20215;-69
2023/05/23 11:17:52;;;;;;;10.27;5.05;;;20.10;50.80;;;;;;5067589;28;20205;-69
2023/05/23 11:20:25;;;;;;;8.10;5.47;;;20.10;50.80;;;;;;5075089;28;20310;-69
2023/05/23 11:22:59;;;;;;;13.93;5.20;;;20.10;50.90;;;;;;5090094;28;20194;-70
2023/05/23 11:25:41;;;;;;;7.88;4.90;;;20.00;50.90;;;;;;5091129;28;20662;-70
2023/05/23 11:28:09;;;;;;;8.07;5.20;;;20.00;50.90;;;;;;5091722;28;20205;-69
2023/05/23 11:30:37;;;;;;;10.45;5.05;;;20.00;50.90;;;;;;5092143;28;20238;-70
2023/05/23 11:33:10;;;;;;;8.40;4.80;;;20.00;50.90;;;;;;5093447;28;20284;-70
2023/05/23 11:35:39;;;;;;;8.23;4.78;;;19.90;51.50;;;;;;5092135;28;20201;-72
2023/05/23 11:38:06;;;;;;;7.03;4.70;;;20.00;50.90;;;;;;5091447;28;20190;-72
2023/05/23 11:40:34;;;;;;;7.88;4.40;;;19.90;50.90;;;;;;5073402;28;20215;-71
2023/05/23 11:43:04;;;;;;;10.90;5.05;;;19.90;50.90;;;;;;5089521;28;20230;-71
2023/05/23 11:45:33;;;;;;;7.68;4.65;;;19.90;51.00;;;;;;5090993;28;20198;-72
2023/05/23 11:48:05;;;;;;;8.32;4.80;;;19.80;51.00;;;;;;5091243;28;20276;-70
2023/05/23 11:50:32;;;;;;;7.45;4.70;;;19.80;51.10;;;;;;5090450;28;20233;-72
2023/05/23 11:53:00;;;;;;;9.15;4.93;;;19.80;51.10;;;;;;5090720;28;20194;-72
2023/05/23 11:55:27;;;;;;;5.97;4.47;;;19.80;51.10;;;;;;5089716;28;20297;-71
2023/05/23 11:57:56;;;;;;;8.88;4.47;;;19.80;51.10;;;;;;5070553;28;20199;-73
2023/05/23 12:00:23;;;;;;;7.65;4.50;;;19.80;51.20;;;;;;5074722;28;20792;-72
2023/05/23 12:02:50;;;;;;;10.63;4.43;;;19.70;51.20;;;;;;5074683;28;20197;-72
2023/05/23 12:05:17;;;;;;;8.43;4.60;;;19.70;51.40;;;;;;5081029;28;20222;-72
2023/05/23 12:07:46;;;;;;;7.63;4.68;;;19.70;51.50;;;;;;5084668;28;20275;-72
2023/05/23 12:10:15;;;;;;;8.75;4.25;;;19.70;51.60;;;;;;5076171;28;20211;-73
2023/05/23 12:12:43;;;;;;;6.72;4.30;;;19.60;51.70;;;;;;5081667;28;20210;-72
2023/05/23 12:15:11;;;;;;;12.30;4.22;;;19.60;51.80;;;;;;5075279;28;20222;-73
2023/05/23 12:17:39;;;;;;;8.55;4.57;;;19.60;52.00;;;;;;5087240;28;20633;-73
2023/05/23 12:20:07;;;;;;;9.32;4.50;;;19.60;52.20;;;;;;5087462;28;20226;-73
2023/05/23 12:22:35;;;;;;;6.38;4.10;;;19.60;52.30;;;;;;5080109;28;20817;-72
2023/05/23 12:25:03;;;;;;;7.75;3.97;;;19.60;52.50;;;;;;5077724;28;20210;-73
2023/05/23 12:27:36;;;;;;;10.52;4.28;;;19.60;52.60;;;;;;5082530;28;20202;-73
2023/05/23 12:30:08;;;;;;;10.73;4.25;;;19.60;52.60;;;;;;5082080;28;20210;-74
2023/05/23 12:32:39;;;;;;;12.27;4.60;;;19.70;52.70;;;;;;5078493;28;20225;-72
2023/05/23 12:35:08;;;;;;;6.35;3.97;;;19.60;52.70;;;;;;5082847;28;20218;-73
2023/05/23 12:37:35;;;;;;;5.78;3.72;;;19.60;52.80;;;;;;5039659;28;20651;-72
2023/05/23 12:40:11;;;;;;;7.18;4.15;;;19.60;53.50;;;;;;5074744;28;20222;-71
2023/05/23 12:42:54;;;;;;;7.10;4.03;;;19.60;52.90;;;;;;5057912;28;20194;-73
2023/05/23 12:45:32;;;;;;;10.32;5.00;;;19.70;53.00;;;;;;5069734;28;20241;-73
2023/05/23 12:48:02;;;;;;;8.45;4.20;;;19.70;53.00;;;;;;5081598;28;20926;-74
2023/05/23 12:50:29;;;;;;;8.00;4.45;;;19.70;53.10;;;;;;5073565;28;21142;-73